createdAt,value
2019-01-18T00:02:28.184Z,6.40
2019-01-18T00:05:31.882Z,6.50
2019-01-18T00:08:35.521Z,6.50
2019-01-18T00:11:39.224Z,6.50
2019-01-18T00:14:42.876Z,6.50
2019-01-18T00:17:46.596Z,6.40
2019-01-18T00:20:50.243Z,6.40
2019-01-18T00:23:53.937Z,6.40
2019-01-18T00:26:57.591Z,6.40
2019-01-18T00:30:01.281Z,6.30
2019-01-18T00:33:04.931Z,6.30
2019-01-18T00:36:08.663Z,6.30
2019-01-18T00:39:12.349Z,6.30
2019-01-18T00:42:16.021Z,6.30
2019-01-18T00:45:20.875Z,6.20
2019-01-18T00:48:24.577Z,6.20
2019-01-18T00:51:28.227Z,6.10
2019-01-18T00:58:04.852Z,6.10
2019-01-18T01:01:08.531Z,6.00
2019-01-18T01:04:12.186Z,6.00
2019-01-18T01:07:17.429Z,5.90
2019-01-18T01:10:21.063Z,5.90
2019-01-18T01:13:24.755Z,5.90
2019-01-18T01:16:28.403Z,5.90
2019-01-18T01:19:32.100Z,6.00
2019-01-18T01:22:35.746Z,5.90
2019-01-18T01:25:39.469Z,5.90
2019-01-18T01:28:43.124Z,5.80
2019-01-18T01:31:46.820Z,5.80
2019-01-18T01:34:50.480Z,5.90
2019-01-18T01:37:54.178Z,5.90
2019-01-18T01:40:57.804Z,5.80
2019-01-18T01:44:01.503Z,5.80
2019-01-18T01:47:05.148Z,5.80
2019-01-18T01:50:11.922Z,5.80
2019-01-18T01:53:15.566Z,5.80
2019-01-18T01:56:19.278Z,5.80
2019-01-18T01:59:22.910Z,5.70
2019-01-18T02:02:26.649Z,5.60
2019-01-18T02:05:30.292Z,5.70
2019-01-18T02:08:34.026Z,5.60
2019-01-18T02:11:37.672Z,5.50
2019-01-18T02:14:41.373Z,5.50
2019-01-18T02:17:45.023Z,5.50
2019-01-18T02:20:48.714Z,5.40
2019-01-18T02:23:52.368Z,5.30
2019-01-18T02:26:56.058Z,5.30
2019-01-18T02:29:59.703Z,5.30
2019-01-18T02:33:03.380Z,5.30
2019-01-18T02:36:07.036Z,5.20
2019-01-18T02:39:10.716Z,5.20
2019-01-18T02:42:14.344Z,5.20
2019-01-18T02:45:19.863Z,5.10
2019-01-18T02:48:24.795Z,5.20
2019-01-18T02:51:28.524Z,5.20
2019-01-18T02:54:32.199Z,5.10
2019-01-18T02:57:35.912Z,5.10
2019-01-18T03:00:39.608Z,5.10
2019-01-18T03:03:43.358Z,5.10
2019-01-18T03:06:46.991Z,5.10
2019-01-18T03:09:50.607Z,5.00
2019-01-18T03:12:54.283Z,5.00
2019-01-18T03:15:57.960Z,4.90
2019-01-18T03:19:01.595Z,4.90
2019-01-18T03:22:05.301Z,4.90
2019-01-18T03:25:20.567Z,4.90
2019-01-18T03:28:24.237Z,4.90
2019-01-18T03:31:27.893Z,4.90
2019-01-18T03:34:31.592Z,4.90
2019-01-18T03:37:35.242Z,4.90
2019-01-18T03:40:38.992Z,4.90
2019-01-18T03:43:42.603Z,5.00
2019-01-18T03:46:46.296Z,4.90
2019-01-18T03:49:51.340Z,5.00
2019-01-18T03:52:55.018Z,4.90
2019-01-18T03:55:58.680Z,5.00
2019-01-18T03:59:02.409Z,5.00
2019-01-18T04:02:06.045Z,5.00
2019-01-18T04:05:10.942Z,4.90
2019-01-18T04:08:14.603Z,4.90
2019-01-18T04:11:18.284Z,4.80
2019-01-18T04:14:21.939Z,4.80
2019-01-18T04:17:25.636Z,4.80
2019-01-18T04:20:29.284Z,4.80
2019-01-18T04:23:32.991Z,4.90
2019-01-18T04:26:36.634Z,5.00
2019-01-18T04:29:40.318Z,5.00
2019-01-18T04:32:43.988Z,5.00
2019-01-18T04:35:47.664Z,5.10
2019-01-18T04:38:51.304Z,5.10
2019-01-18T04:41:55.044Z,5.10
2019-01-18T04:44:58.692Z,5.10
2019-01-18T04:48:02.425Z,5.10
2019-01-18T04:51:07.338Z,5.10
2019-01-18T04:54:11.055Z,5.20
2019-01-18T04:57:14.678Z,5.20
2019-01-18T05:00:23.716Z,5.20
2019-01-18T05:03:27.351Z,5.30
2019-01-18T05:06:31.129Z,5.30
2019-01-18T05:09:34.765Z,5.30
2019-01-18T05:12:38.478Z,5.30
2019-01-18T05:15:42.109Z,5.30
2019-01-18T05:18:45.846Z,5.20
2019-01-18T05:21:49.465Z,5.20
2019-01-18T05:24:53.165Z,5.20
2019-01-18T05:27:56.813Z,5.20
2019-01-18T05:31:00.517Z,5.10
2019-01-18T05:34:04.156Z,5.00
2019-01-18T05:37:07.900Z,4.90
2019-01-18T05:40:19.108Z,4.80
2019-01-18T05:43:22.803Z,4.70
2019-01-18T05:46:26.486Z,4.60
2019-01-18T05:49:30.160Z,4.50
2019-01-18T05:52:33.817Z,4.40
2019-01-18T05:55:37.509Z,4.30
2019-01-18T05:58:41.156Z,4.30
2019-01-18T06:01:44.831Z,4.20
2019-01-18T06:04:49.480Z,4.20
2019-01-18T06:07:53.175Z,4.10
2019-01-18T06:10:56.812Z,4.10
2019-01-18T06:14:00.536Z,4.00
2019-01-18T06:17:04.162Z,4.00
2019-01-18T06:20:11.225Z,3.90
2019-01-18T06:23:14.871Z,3.90
2019-01-18T06:26:18.629Z,3.80
2019-01-18T06:29:22.321Z,3.70
2019-01-18T06:32:26.022Z,3.60
2019-01-18T06:35:29.746Z,3.50
2019-01-18T06:38:33.380Z,3.30
2019-01-18T06:41:37.635Z,3.30
2019-01-18T06:44:41.323Z,3.20
2019-01-18T06:47:44.996Z,3.20
2019-01-18T06:50:48.724Z,3.10
2019-01-18T06:53:52.481Z,3.10
2019-01-18T06:56:56.897Z,3.00
2019-01-18T07:00:00.548Z,3.00
2019-01-18T07:03:04.323Z,3.10
2019-01-18T07:06:08.031Z,3.10
2019-01-18T07:09:11.793Z,3.20
2019-01-18T07:12:15.537Z,3.20
2019-01-18T07:15:19.352Z,3.30
2019-01-18T07:18:23.016Z,3.40
2019-01-18T07:21:26.775Z,3.40
2019-01-18T07:24:30.415Z,3.40
2019-01-18T07:27:34.098Z,3.30
2019-01-18T07:30:38.284Z,3.20
2019-01-18T07:33:41.994Z,3.10
2019-01-18T07:36:45.970Z,2.90
2019-01-18T07:39:49.678Z,2.70
2019-01-18T07:42:53.343Z,2.40
2019-01-18T07:45:57.038Z,2.20
2019-01-18T07:49:00.714Z,2.10
2019-01-18T07:52:04.436Z,2.00
2019-01-18T07:55:09.508Z,1.80
2019-01-18T07:58:13.193Z,1.80
2019-01-18T08:01:22.048Z,1.80
2019-01-18T08:04:22.172Z,1.60
2019-01-18T08:07:25.832Z,1.50
2019-01-18T08:10:29.551Z,1.50
2019-01-18T08:13:33.196Z,1.50
2019-01-18T08:16:36.900Z,1.60
2019-01-18T08:19:40.556Z,1.60
2019-01-18T08:22:44.332Z,1.60
2019-01-18T08:25:48.014Z,1.70
2019-01-18T08:28:51.705Z,1.60
2019-01-18T08:31:55.358Z,1.50
2019-01-18T08:34:59.050Z,1.60
2019-01-18T08:38:02.719Z,1.60
2019-01-18T08:41:06.397Z,1.60
2019-01-18T08:44:10.040Z,1.70
2019-01-18T08:47:13.804Z,1.80
2019-01-18T08:50:19.382Z,1.90
2019-01-18T08:53:23.075Z,1.90
2019-01-18T08:56:26.749Z,1.90
2019-01-18T08:59:30.503Z,1.90
2019-01-18T09:02:34.164Z,2.00
2019-01-18T09:05:37.875Z,2.10
2019-01-18T09:08:41.519Z,2.20
2019-01-18T09:11:45.224Z,2.30
2019-01-18T09:14:48.896Z,2.40
2019-01-18T09:17:52.598Z,2.50
2019-01-18T09:20:56.263Z,2.50
2019-01-18T09:23:59.957Z,2.50
2019-01-18T09:27:03.600Z,2.60
2019-01-18T09:30:21.325Z,2.60
2019-01-18T09:33:24.959Z,2.60
2019-01-18T09:36:28.714Z,2.60
2019-01-18T09:39:32.346Z,2.70
2019-01-18T09:42:36.024Z,2.70
2019-01-18T09:45:39.723Z,2.70
2019-01-18T09:48:43.416Z,2.70
2019-01-18T09:51:47.083Z,2.80
2019-01-18T09:54:50.777Z,2.90
2019-01-18T09:57:54.436Z,2.80
2019-01-18T10:00:58.133Z,2.80
2019-01-18T10:04:01.788Z,2.80
2019-01-18T10:07:05.509Z,2.80
2019-01-18T10:10:12.575Z,2.90
2019-01-18T10:13:16.271Z,2.90
2019-01-18T10:16:19.910Z,3.00
2019-01-18T10:19:23.605Z,3.00
2019-01-18T10:22:27.287Z,3.10
2019-01-18T10:25:30.954Z,3.10
2019-01-18T10:28:34.603Z,3.10
2019-01-18T10:31:38.284Z,3.10
2019-01-18T10:34:41.969Z,3.10
2019-01-18T10:37:45.676Z,3.10
2019-01-18T10:40:49.308Z,3.20
2019-01-18T10:43:53.020Z,3.20
2019-01-18T10:46:56.818Z,3.20
2019-01-18T10:50:00.715Z,3.20
2019-01-18T10:53:04.888Z,3.30
2019-01-18T10:56:09.050Z,3.30
2019-01-18T10:59:12.743Z,3.20
2019-01-18T11:02:16.443Z,3.20
2019-01-18T11:05:20.720Z,3.30
2019-01-18T11:08:24.408Z,3.30
2019-01-18T11:11:28.084Z,3.40
2019-01-18T11:14:31.773Z,3.50
2019-01-18T11:17:35.442Z,3.50
2019-01-18T11:20:42.243Z,3.50
2019-01-18T11:23:45.900Z,3.50
2019-01-18T11:26:49.613Z,3.50
2019-01-18T11:29:53.243Z,3.50
2019-01-18T11:32:56.935Z,3.60
2019-01-18T11:36:00.591Z,3.60
2019-01-18T11:39:04.861Z,3.30
2019-01-18T11:42:08.502Z,3.30
2019-01-18T11:45:13.208Z,3.30
2019-01-18T11:48:16.884Z,3.40
2019-01-18T11:51:20.581Z,3.50
2019-01-18T11:54:24.278Z,3.70
2019-01-18T11:57:27.935Z,3.80
2019-01-18T12:00:37.630Z,3.80
2019-01-18T12:03:36.924Z,3.80
2019-01-18T12:06:40.593Z,4.10
2019-01-18T12:09:44.302Z,4.20
2019-01-18T12:12:47.945Z,4.20
2019-01-18T12:15:51.660Z,4.30
2019-01-18T12:18:55.304Z,4.30
2019-01-18T12:21:59.010Z,4.20
2019-01-18T12:25:02.666Z,4.00
2019-01-18T12:28:06.369Z,3.80
2019-01-18T12:31:10.055Z,3.60
2019-01-18T12:34:14.905Z,3.40
2019-01-18T12:37:18.534Z,3.30
2019-01-18T12:40:22.251Z,3.30
2019-01-18T12:43:25.915Z,3.20
2019-01-18T12:46:29.600Z,3.20
2019-01-18T12:49:33.278Z,3.10
2019-01-18T12:52:36.975Z,3.00
2019-01-18T12:55:40.610Z,2.90
2019-01-18T12:58:44.331Z,2.90
2019-01-18T13:01:47.980Z,2.90
2019-01-18T13:04:51.884Z,2.90
2019-01-18T13:07:55.539Z,2.80
2019-01-18T13:10:59.230Z,2.80
2019-01-18T13:14:02.978Z,2.80
2019-01-18T13:17:06.662Z,2.70
2019-01-18T13:20:12.646Z,2.60
2019-01-18T13:23:16.348Z,2.50
2019-01-18T13:26:20.041Z,2.40
2019-01-18T13:29:23.745Z,2.40
2019-01-18T13:32:27.388Z,2.30
2019-01-18T13:35:31.121Z,2.40
2019-01-18T13:38:34.729Z,2.40
2019-01-18T13:41:38.434Z,2.40
2019-01-18T13:44:43.741Z,2.40
2019-01-18T13:47:47.439Z,2.50
2019-01-18T13:50:51.207Z,2.50
2019-01-18T13:53:54.898Z,2.50
2019-01-18T13:56:58.555Z,2.40
2019-01-18T14:00:02.258Z,2.30
2019-01-18T14:03:05.923Z,2.20
2019-01-18T14:06:09.674Z,2.10
2019-01-18T14:09:13.299Z,2.10
2019-01-18T14:12:17.020Z,2.10
2019-01-18T14:15:22.533Z,2.00
2019-01-18T14:18:26.232Z,2.00
2019-01-18T14:21:31.241Z,2.00
2019-01-18T14:24:34.964Z,1.90
2019-01-18T14:27:38.614Z,1.90
2019-01-18T14:30:42.331Z,1.90
2019-01-18T14:33:45.964Z,1.90
2019-01-18T14:36:49.681Z,1.80
2019-01-18T14:39:53.332Z,1.60
2019-01-18T14:42:57.328Z,1.60
2019-01-18T14:46:00.981Z,1.60
2019-01-18T14:49:04.682Z,1.50
2019-01-18T14:52:08.351Z,1.50
2019-01-18T14:55:12.040Z,1.40
2019-01-18T14:58:15.683Z,1.40
2019-01-18T15:01:19.391Z,1.30
2019-01-18T15:04:23.057Z,1.30
2019-01-18T15:07:26.796Z,1.40
2019-01-18T15:10:30.457Z,1.30
2019-01-18T15:13:34.154Z,1.30
2019-01-18T15:16:37.804Z,1.30
2019-01-18T15:19:41.575Z,1.30
2019-01-18T15:22:45.289Z,1.30
2019-01-18T15:25:48.984Z,1.20
2019-01-18T15:28:52.631Z,1.20
2019-01-18T15:31:56.387Z,1.20
2019-01-18T15:35:00.092Z,1.20
2019-01-18T15:38:04.758Z,1.20
2019-01-18T15:41:08.382Z,1.10
2019-01-18T15:44:12.087Z,1.10
2019-01-18T15:47:15.732Z,1.10
2019-01-18T15:50:24.573Z,1.10
2019-01-18T15:53:28.223Z,1.00
2019-01-18T15:56:31.920Z,1.00
2019-01-18T15:59:35.597Z,0.90
2019-01-18T16:02:39.321Z,0.90
2019-01-18T16:05:42.957Z,0.90
2019-01-18T16:08:46.666Z,0.80
2019-01-18T16:11:50.317Z,0.90
2019-01-18T16:14:54.077Z,0.80
2019-01-18T16:17:57.698Z,0.80
2019-01-18T16:21:02.616Z,0.80
2019-01-18T16:24:06.372Z,0.80
2019-01-18T16:27:10.075Z,0.80
2019-01-18T16:30:16.402Z,0.70
2019-01-18T16:33:23.566Z,0.70
2019-01-18T16:36:25.625Z,0.70
2019-01-18T16:39:29.643Z,0.70
2019-01-18T16:42:33.293Z,0.60
2019-01-18T16:45:37.014Z,0.60
2019-01-18T16:48:40.679Z,0.60
2019-01-18T16:51:44.389Z,0.60
2019-01-18T16:54:48.042Z,0.60
2019-01-18T16:57:51.758Z,0.60
2019-01-18T17:00:58.422Z,0.60
2019-01-18T17:04:02.093Z,0.60
2019-01-18T17:07:05.764Z,0.60
2019-01-18T17:10:12.575Z,0.60
2019-01-18T17:13:16.238Z,0.60
2019-01-18T17:16:19.980Z,0.60
2019-01-18T17:19:24.087Z,0.60
2019-01-18T17:22:27.858Z,0.60
2019-01-18T17:25:31.516Z,0.60
2019-01-18T17:28:35.232Z,0.60
2019-01-18T17:31:38.911Z,0.50
2019-01-18T17:34:42.619Z,0.60
2019-01-18T17:37:50.652Z,0.60
2019-01-18T17:41:15.656Z,0.60
2019-01-18T17:44:34.315Z,0.50
2019-01-18T17:47:41.150Z,0.50
2019-01-18T17:51:19.662Z,0.50
2019-01-18T17:54:26.509Z,0.50
2019-01-18T17:58:04.549Z,0.50
2019-01-18T18:01:18.893Z,0.50
2019-01-18T18:04:40.766Z,0.50
2019-01-18T18:07:50.532Z,0.50
2019-01-18T18:11:09.823Z,0.50
2019-01-18T18:14:25.541Z,0.40
2019-01-18T18:17:44.419Z,0.40
2019-01-18T18:20:57.125Z,0.40
2019-01-18T18:24:18.808Z,0.40
2019-01-18T18:27:31.569Z,0.40
2019-01-18T18:30:38.302Z,0.40
2019-01-18T18:34:14.083Z,0.40
2019-01-18T18:37:23.718Z,0.40
2019-01-18T18:40:36.228Z,0.30
2019-01-18T18:44:08.542Z,0.30
2019-01-18T18:47:27.352Z,0.30
2019-01-18T18:50:58.467Z,0.30
2019-01-18T18:54:05.330Z,0.30
2019-01-18T18:57:30.364Z,0.30
2019-01-18T19:00:56.371Z,0.30
2019-01-18T19:04:08.680Z,0.30
2019-01-18T19:07:47.081Z,0.30
2019-01-18T19:11:02.883Z,0.30
2019-01-18T19:14:32.234Z,0.20
2019-01-18T19:17:47.515Z,0.20
2019-01-18T19:21:27.717Z,0.20
2019-01-18T19:24:37.327Z,0.20
2019-01-18T19:27:49.820Z,0.20
2019-01-18T19:30:56.587Z,0.10
2019-01-18T19:34:04.499Z,0.10
2019-01-18T19:37:31.021Z,0.10
2019-01-18T19:40:40.717Z,0.10
2019-01-18T19:44:02.494Z,0.10
2019-01-18T19:47:09.343Z,0.20
2019-01-18T19:50:32.780Z,0.20
2019-01-18T19:53:51.425Z,0.10
2019-01-18T19:56:58.224Z,0.10
2019-01-18T20:00:22.671Z,0.00
2019-01-18T20:03:35.178Z,0.00
2019-01-18T20:06:58.924Z,-0.10
2019-01-18T20:10:20.635Z,-0.10
2019-01-18T20:13:48.874Z,-0.20
2019-01-18T20:17:07.911Z,-0.20
2019-01-18T20:20:26.784Z,-0.20
2019-01-18T20:23:45.440Z,-0.30
2019-01-18T20:26:58.159Z,-0.20
2019-01-18T20:30:32.147Z,-0.30
2019-01-18T20:33:57.167Z,-0.30
2019-01-18T20:37:06.589Z,-0.30
2019-01-18T20:40:25.715Z,-0.30
2019-01-18T20:43:32.515Z,-0.30
2019-01-18T20:46:45.016Z,-0.30
2019-01-18T20:49:51.813Z,-0.40
2019-01-18T20:53:10.887Z,-0.30
2019-01-18T20:56:23.385Z,-0.30
2019-01-18T20:59:46.943Z,-0.40
2019-01-18T21:03:09.690Z,-0.40
2019-01-18T21:06:16.503Z,-0.40
2019-01-18T21:09:26.231Z,-0.40
2019-01-18T21:12:33.087Z,-0.40
2019-01-18T21:16:09.829Z,-0.50
2019-01-18T21:19:28.439Z,-0.40
2019-01-18T21:26:10.586Z,-0.50
2019-01-18T21:29:29.463Z,-0.50
2019-01-18T21:32:48.304Z,-0.50
2019-01-18T21:35:55.076Z,-0.50
2019-01-18T21:39:21.250Z,-0.50
2019-01-18T21:42:30.763Z,-0.50
2019-01-18T21:46:12.720Z,-0.50
2019-01-18T21:49:22.502Z,-0.50
2019-01-18T21:52:50.464Z,-0.50
2019-01-18T21:55:57.229Z,-0.50
2019-01-18T21:59:07.031Z,-0.50
2019-01-18T22:02:16.422Z,-0.60
2019-01-18T22:05:44.585Z,-0.50
2019-01-18T22:09:04.918Z,-0.60
2019-01-18T22:12:17.456Z,-0.60
2019-01-18T22:15:44.660Z,-0.60
2019-01-18T22:19:14.053Z,-0.60
2019-01-18T22:22:29.775Z,-0.60
2019-01-18T22:25:45.394Z,-0.60
2019-01-18T22:29:13.563Z,-0.60
2019-01-18T22:32:23.219Z,-0.70
2019-01-18T22:35:47.926Z,-0.70
2019-01-18T22:38:54.805Z,-0.70
2019-01-18T22:42:13.551Z,-0.70
2019-01-18T22:45:32.465Z,-0.70
2019-01-18T22:48:48.360Z,-0.80
2019-01-18T22:52:03.927Z,-0.80
2019-01-18T22:55:25.779Z,-0.70
2019-01-18T22:58:50.915Z,-0.80
2019-01-18T23:01:57.763Z,-0.70
2019-01-18T23:05:13.736Z,-0.70
2019-01-18T23:08:53.752Z,-0.70
2019-01-18T23:12:00.542Z,-0.70
2019-01-18T23:15:21.761Z,-0.70
2019-01-18T23:18:40.292Z,-0.80
2019-01-18T23:21:56.137Z,-1.10
2019-01-18T23:25:31.392Z,-1.10
2019-01-18T23:28:47.271Z,-1.30
2019-01-18T23:32:00.008Z,-1.40
2019-01-18T23:35:06.752Z,-1.50
2019-01-18T23:38:13.622Z,-1.80
2019-01-18T23:41:39.853Z,-1.90
2019-01-18T23:45:15.545Z,-2.00
2019-01-18T23:48:37.095Z,-2.10
2019-01-18T23:51:46.450Z,-2.10
2019-01-18T23:55:01.797Z,-2.10
2019-01-18T23:58:17.512Z,-2.00
